Data for 01/02/2011

Time Sea-Level Adjusted Pressure Absolute Pressure Temperature Relative Humidity Dew Point   
(mb) (inHg) (mb) (inHg) (C) (F) (%) (C) (F)
00:05 1016 30 845 24.95 -12.2 10.1 76 -15.6 3.8
00:10 1016 30 845 24.95 -12.1 10.1 76 -15.6 3.9
00:15 1016 30 845 24.95 -12.2 10.1 75 -15.8 3.6
00:20 1016 30 845 24.95 -12.2 10 75 -15.9 3.4
00:25 1016 30 845 24.95 -12.2 10.1 72 -16.2 2.8
00:30 1016 30 845 24.95 -12.1 10.2 71 -16.4 2.5
00:35 1016 30 845 24.95 -12 10.4 71 -16.2 2.8
00:40 1016 30 845 24.95 -11.9 10.5 71 -16.2 2.8
00:45 1016 30 845 24.95 -11.9 10.5 69 -16.5 2.4
00:50 1016 30 845 24.95 -11.9 10.7 70 -16.4 2.6
00:55 1016 30 845 24.95 -11.7 10.9 72 -15.7 3.7
01:00 1016 30 845 24.95 -11.8 10.7 71 -16.2 2.9
01:05 1015 29.97 845 24.95 -11.7 10.9 72 -15.8 3.5
01:10 1015 29.97 845 24.95 -11.6 11.1 68 -16.4 2.4
01:15 1015 29.97 845 24.95 -11.5 11.4 67 -16.5 2.4
01:20 1015 29.97 845 24.95 -11.4 11.5 66 -16.4 2.4
01:25 1016 30 845 24.95 -11.2 11.9 67 -16.2 2.8
01:30 1016 30 845 24.95 -11.2 11.9 67 -16.1 3
01:35 1016 30 845 24.95 -11.2 11.9 69 -15.8 3.6
01:40 1016 30 845 24.95 -11 12.2 66 -16.1 3
01:45 1016 30 845 24.95 -10.9 12.4 65 -16.3 2.7
01:50 1016 30 845 24.95 -10.9 12.4 65 -16.3 2.7
01:55 1016 30 845 24.95 -10.7 12.8 68 -15.6 3.9
02:00 1016 30 845 24.95 -10.6 12.9 67 -15.7 3.7
02:05 1016 30 845 24.95 -10.7 12.7 69 -15.3 4.4
02:10 1016 30 845 24.95 -10.8 12.5 68 -15.6 4
02:15 1016 30 845 24.95 -10.9 12.5 69 -15.5 4.1
02:20 1016 30 845 24.95 -10.9 12.5 68 -15.7 3.8
02:25 1016 30 845 24.95 -10.7 12.7 68 -15.5 4.1
02:30 1016 30 845 24.95 -10.6 12.9 72 -14.7 5.6
02:35 1016 30 845 24.95 -10.6 13 72 -14.8 5.4
02:40 1016 30 845 24.95 -10.6 13 71 -14.9 5.1
02:45 1016 30 845 24.95 -10.5 13 71 -14.9 5.2
02:50 1016 30 845 24.95 -10.5 13.1 67 -15.5 4.1
02:55 1016 30 845 24.95 -10.5 13.1 69 -15.1 4.8
03:00 1016 30 845 24.95 -10.5 13.1 71 -14.8 5.3
03:05 1016 30 845 24.95 -10.5 13.2 71 -14.8 5.3
03:10 1016 30 845 24.95 -10.3 13.4 69 -15 5.1
03:15 1016 30 845 24.95 -10.3 13.5 70 -14.8 5.4
03:20 1016 30 845 24.95 -10.3 13.5 72 -14.5 5.9
03:25 1016 30 845 24.95 -10.4 13.3 72 -14.5 5.9
03:30 1016 30 845 24.95 -10.3 13.5 71 -14.6 5.6
03:35 1016 30 845 24.95 -10.3 13.6 72 -14.3 6.2
03:40 1016 30 845 24.95 -10.3 13.5 69 -15 5.1
03:45 1016 30 845 24.95 -10.2 13.6 72 -14.4 6
03:50 1016 30 845 24.95 -10.2 13.6 68 -15 5
03:55 1016 30 845 24.95 -10.1 13.7 70 -14.7 5.6
04:00 1016 30 845 24.95 -10.1 13.8 67 -15.2 4.7
04:05 1016 30 845 24.95 -10.2 13.7 69 -14.9 5.3
04:10 1016 30 845 24.95 -10.2 13.7 67 -15.2 4.6
04:15 1016 30 845 24.95 -10.2 13.7 69 -14.8 5.3
04:20 1016 30 845 24.95 -10.2 13.7 71 -14.5 5.8
04:25 1016 30 845 24.95 -10.2 13.7 69 -14.9 5.2
04:30 1016 30 845 24.95 -10.1 13.8 69 -14.8 5.3
04:35 1016 30 845 24.95 -10 13.9 71 -14.3 6.2
04:40 1016 30 845 24.95 -10 13.9 71 -14.3 6.2
04:45 1016 30 845 24.95 -10 14 70 -14.6 5.8
04:50 1016 30 845 24.95 -9.9 14.2 71 -14.3 6.3
04:55 1016 30 845 24.95 -10 14 71 -14.2 6.4
05:00 1016 30 845 24.95 -10 14 72 -14.2 6.5
05:05 1016 30 845 24.95 -10 14 71 -14.2 6.4
05:10 1016 30 845 24.95 -10 14.1 70 -14.4 6.1
05:15 1016 30 845 24.95 -10 14 71 -14.3 6.2
05:20 1016 30 845 24.95 -10 14 69 -14.6 5.8
05:25 1016 30 845 24.95 -9.9 14.1 70 -14.4 6.1
05:30 1016 30 845 24.95 -10 14 69 -14.6 5.7
05:35 1016 30 845 24.95 -10 14.1 71 -14.3 6.2
05:40 1016 30 845 24.95 -10 14 72 -14.2 6.5
05:45 1016 30 845 24.95 -9.9 14.1 70 -14.3 6.2
05:50 1016 30 845 24.95 -9.9 14.2 71 -14.1 6.6
05:55 1016 30 845 24.95 -9.9 14.2 71 -14.1 6.6
06:00 1016 30 845 24.95 -9.8 14.4 70 -14.3 6.3
06:05 1016 30 845 24.95 -9.6 14.7 66 -14.8 5.3
06:10 1016 30 846 24.98 -9.4 15.1 65 -14.8 5.3
06:15 1016 30 846 24.98 -9.3 15.3 64 -14.9 5.1
06:20 1016 30 846 24.98 -9.2 15.4 64 -14.8 5.4
06:25 1016 30 846 24.98 -9.2 15.4 66 -14.4 6
06:30 1016 30 846 24.98 -9.2 15.5 66 -14.4 6.1
06:35 1016 30 846 24.98 -9.1 15.5 66 -14.3 6.2
06:40 1017 30.03 846 24.98 -9.1 15.6 68 -14 6.9
06:45 1017 30.03 846 24.98 -9.1 15.6 69 -13.9 7
06:50 1017 30.03 846 24.98 -9.1 15.7 67 -14.2 6.4
06:55 1017 30.03 846 24.98 -9 15.7 68 -13.9 7.1
07:00 1017 30.03 846 24.98 -9.1 15.6 71 -13.4 7.9
07:05 1017 30.03 846 24.98 -9.3 15.3 72 -13.5 7.7
07:10 1017 30.03 846 24.98 -9.4 15.1 72 -13.5 7.6
07:15 1017 30.03 846 24.98 -9.5 15 74 -13.3 8
07:20 1017 30.03 846 24.98 -9.5 14.9 72 -13.6 7.5
07:25 1017 30.03 846 24.98 -9.7 14.5 70 -14.2 6.5
07:30 1017 30.03 846 24.98 -9.7 14.6 70 -14.1 6.6
07:35 1016 30 846 24.98 -9.6 14.7 74 -13.4 7.9
07:40 1016 30 846 24.98 -9.8 14.4 75 -13.5 7.7
07:45 1016 30 846 24.98 -9.8 14.4 73 -13.8 7.2
07:50 1016 30 846 24.98 -9.7 14.5 73 -13.8 7.2
07:55 1016 30 846 24.98 -9.6 14.7 68 -14.5 5.9
08:00 1016 30 846 24.98 -9.4 15 71 -13.7 7.4
08:05 1016 30 846 24.98 -9.4 15 70 -13.9 7
08:10 1017 30.03 846 24.98 -9.4 15.1 71 -13.6 7.4
08:15 1017 30.03 846 24.98 -9.4 15.1 72 -13.6 7.6
08:20 1016 30 846 24.98 -9.5 15 73 -13.4 7.9
08:25 1016 30 846 24.98 -9.4 15.1 72 -13.6 7.5
08:30 1016 30 846 24.98 -9.3 15.3 73 -13.3 8.1
08:35 1016 30 846 24.98 -9.3 15.2 73 -13.2 8.2
08:40 1016 30 846 24.98 -9.3 15.2 74 -13.2 8.3
08:45 1016 30 846 24.98 -9.3 15.3 72 -13.5 7.6
08:50 1016 30 846 24.98 -9.1 15.7 70 -13.5 7.6
08:55 1016 30 846 24.98 -8.9 15.9 70 -13.5 7.8
09:00 1017 30.03 846 24.98 -8.7 16.4 71 -13 8.6
09:05 1017 30.03 846 24.98 -8.4 16.9 67 -13.4 7.8
09:10 1017 30.03 846 24.98 -8.1 17.4 65 -13.6 7.6
09:15 1017 30.03 846 24.98 -8.1 17.4 67 -13.2 8.2
09:20 1017 30.03 846 24.98 -8.1 17.4 68 -13.1 8.5
09:25 1017 30.03 846 24.98 -8.3 17 70 -12.9 8.7
09:30 1017 30.03 846 24.98 -8.2 17.3 70 -12.7 9.1
09:35 1017 30.03 846 24.98 -7.9 17.9 67 -13 8.6
09:40 1017 30.03 846 24.98 -7.6 18.3 66 -12.9 8.7
09:45 1017 30.03 846 24.98 -7.5 18.5 66 -12.8 9
09:50 1017 30.03 846 24.98 -7.3 18.9 64 -12.9 8.8
09:55 1017 30.03 846 24.98 -7.3 18.8 66 -12.6 9.4
10:00 1017 30.03 846 24.98 -7.2 19 67 -12.4 9.7
10:05 1017 30.03 846 24.98 -7.2 19 68 -12.2 10.1
10:10 1017 30.03 847 25.01 -7.3 18.9 69 -12 10.5
10:15 1017 30.03 847 25.01 -7.4 18.6 67 -12.6 9.4
10:20 1018 30.06 847 25.01 -7.5 18.5 66 -12.8 9
10:25 1018 30.06 847 25.01 -8.1 17.5 72 -12.3 9.8
10:30 1018 30.06 847 25.01 -8.3 17 71 -12.7 9.1
10:35 1018 30.06 847 25.01 -8.2 17.3 71 -12.6 9.2
10:40 1018 30.06 847 25.01 -8.4 16.9 73 -12.4 9.6
10:45 1018 30.06 847 25.01 -8.6 16.4 74 -12.5 9.5
10:50 1018 30.06 847 25.01 -9.2 15.4 75 -12.8 8.9
10:55 1018 30.06 847 25.01 -9 15.8 71 -13.3 8.1
11:00 1018 30.06 847 25.01 -8.9 16 68 -13.8 7.1
11:05 1018 30.06 847 25.01 -9.1 15.6 72 -13.2 8.2
11:10 1018 30.06 847 25.01 -9.2 15.5 74 -12.9 8.7
11:15 1018 30.06 847 25.01 -9.2 15.4 75 -12.9 8.9
11:20 1018 30.06 847 25.01 -9.2 15.4 75 -12.9 8.8
11:25 1018 30.06 847 25.01 -9 15.8 75 -12.8 9
11:30 1018 30.06 847 25.01 -8.4 16.8 72 -12.5 9.4
11:35 1018 30.06 847 25.01 -8.2 17.3 73 -12.1 10.2
11:40 1018 30.06 847 25.01 -7.9 17.9 72 -12 10.4
11:45 1018 30.06 847 25.01 -8.1 17.4 74 -12.1 10.3
11:50 1018 30.06 847 25.01 -8.1 17.4 76 -11.7 11
11:55 1018 30.06 847 25.01 -8.2 17.3 78 -11.4 11.5
12:00 1018 30.06 847 25.01 -8.2 17.2 78 -11.4 11.4
12:05 1018 30.06 847 25.01 -8 17.7 77 -11.3 11.7
12:10 1018 30.06 847 25.01 -7.6 18.4 75 -11.2 11.8
12:15 1018 30.06 847 25.01 -7.5 18.6 75 -11.2 11.8
12:20 1018 30.06 847 25.01 -7.2 19 75 -11 12.2
12:25 1018 30.06 847 25.01 -6.9 19.6 73 -11 12.2
12:30 1018 30.06 847 25.01 -6.9 19.5 74 -10.8 12.5
12:35 1018 30.06 847 25.01 -7.4 18.7 77 -10.7 12.8
12:40 1018 30.06 847 25.01 -7.9 17.8 79 -11 12.2
12:45 1017 30.03 847 25.01 -8 17.6 79 -11 12.1
12:50 1017 30.03 847 25.01 -8.1 17.5 79 -11.1 12
12:55 1017 30.03 847 25.01 -8.3 17.1 80 -11.1 12
13:00 1017 30.03 847 25.01 -8.3 17 80 -11.2 11.9
13:05 1017 30.03 846 24.98 -8.6 16.6 80 -11.4 11.6
13:10 1017 30.03 846 24.98 -8.3 17 77 -11.7 10.9
13:15 1017 30.03 846 24.98 -8.2 17.3 76 -11.7 11
13:20 1017 30.03 846 24.98 -8 17.5 76 -11.5 11.3
13:25 1017 30.03 846 24.98 -7.7 18.1 75 -11.4 11.4
13:30 1017 30.03 846 24.98 -7.5 18.6 74 -11.3 11.6
13:35 1017 30.03 846 24.98 -7.3 19 71 -11.7 11
13:40 1017 30.03 846 24.98 -7.2 19 71 -11.6 11.1
13:45 1017 30.03 846 24.98 -7.2 19.1 70 -11.8 10.8
13:50 1017 30.03 846 24.98 -7.1 19.2 68 -12 10.3
13:55 1017 30.03 846 24.98 -6.8 19.7 68 -11.8 10.8
14:00 1017 30.03 846 24.98 -6.3 20.6 66 -11.8 10.8
14:05 1017 30.03 846 24.98 -6.5 20.3 68 -11.4 11.5
14:10 1017 30.03 846 24.98 -6.8 19.8 69 -11.6 11.2
14:15 1017 30.03 846 24.98 -6.9 19.6 70 -11.5 11.3
14:20 1017 30.03 846 24.98 -6.9 19.5 69 -11.7 10.9
14:25 1017 30.03 846 24.98 -6.8 19.7 68 -11.7 10.9
14:30 1017 30.03 846 24.98 -6.7 20 70 -11.3 11.7
14:35 1017 30.03 846 24.98 -6.4 20.5 68 -11.3 11.7
14:40 1017 30.03 846 24.98 -6.2 20.9 67 -11.3 11.7
14:45 1017 30.03 846 24.98 -6.2 20.8 68 -11.3 11.7
14:50 1017 30.03 846 24.98 -6.6 20 71 -11.1 12.1
14:55 1017 30.03 846 24.98 -7.1 19.2 73 -11.2 11.8
15:00 1017 30.03 846 24.98 -7.1 19.3 72 -11.3 11.7
15:05 1017 30.03 846 24.98 -6.7 19.9 71 -11.1 11.9
15:10 1017 30.03 846 24.98 -7.2 19.1 73 -11.3 11.7
15:15 1017 30.03 846 24.98 -7.5 18.5 74 -11.4 11.5
15:20 1017 30.03 846 24.98 -7.6 18.4 73 -11.5 11.3
15:25 1017 30.03 846 24.98 -7.6 18.4 73 -11.6 11.2
15:30 1017 30.03 846 24.98 -7.5 18.5 73 -11.5 11.3
15:35 1017 30.03 846 24.98 -7.3 18.8 74 -11.3 11.7
15:40 1017 30.03 846 24.98 -7.4 18.7 74 -11.3 11.7
15:45 1017 30.03 846 24.98 -7.3 18.8 73 -11.4 11.5
15:50 1017 30.03 846 24.98 -7.4 18.6 73 -11.5 11.3
15:55 1017 30.03 846 24.98 -7.6 18.3 74 -11.5 11.4
16:00 1017 30.03 846 24.98 -7.7 18.1 75 -11.5 11.4
16:05 1017 30.03 846 24.98 -7.7 18.1 74 -11.5 11.3
16:10 1017 30.03 846 24.98 -7.6 18.4 74 -11.5 11.4
16:15 1017 30.03 846 24.98 -7.4 18.7 73 -11.5 11.2
16:20 1017 30.03 846 24.98 -7.4 18.8 74 -11.2 11.8
16:25 1017 30.03 846 24.98 -7.6 18.4 74 -11.4 11.5
16:30 1017 30.03 846 24.98 -7.6 18.2 72 -11.9 10.5
16:35 1017 30.03 846 24.98 -7.8 18 74 -11.6 11.1
16:40 1017 30.03 846 24.98 -8 17.7 75 -11.6 11.1
16:45 1017 30.03 846 24.98 -8 17.6 76 -11.6 11.2
16:50 1017 30.03 846 24.98 -7.9 17.8 76 -11.5 11.4
16:55 1017 30.03 846 24.98 -7.9 17.8 76 -11.4 11.4
17:00 1017 30.03 846 24.98 -7.8 18 76 -11.4 11.5
17:05 1017 30.03 846 24.98 -7.6 18.3 75 -11.3 11.7
17:10 1017 30.03 846 24.98 -7.5 18.5 74 -11.3 11.7
17:15 1017 30.03 846 24.98 -7.5 18.5 76 -11.1 12
17:20 1017 30.03 846 24.98 -7.6 18.2 77 -11 12.2
17:25 1017 30.03 846 24.98 -7.6 18.3 76 -11.1 12
17:30 1017 30.03 846 24.98 -7.8 18 77 -11.1 12.1
17:35 1017 30.03 846 24.98 -7.7 18.1 78 -11 12.3
17:40 1017 30.03 846 24.98 -7.7 18.2 78 -10.9 12.3
17:45 1017 30.03 846 24.98 -7.6 18.3 77 -11 12.3
17:50 1017 30.03 846 24.98 -7.6 18.2 78 -10.9 12.4
17:55 1017 30.03 846 24.98 -7.5 18.4 77 -10.9 12.5
18:00 1017 30.03 846 24.98 -7.4 18.7 77 -10.8 12.6
18:05 1017 30.03 846 24.98 -7.3 18.9 77 -10.7 12.8
18:10 1017 30.03 846 24.98 -7.4 18.6 78 -10.6 12.9
18:15 1017 30.03 846 24.98 -7.3 18.8 79 -10.4 13.3
18:20 1017 30.03 846 24.98 -7.1 19.3 77 -10.4 13.2
18:25 1017 30.03 846 24.98 -7.1 19.2 77 -10.5 13.2
18:30 1017 30.03 846 24.98 -7 19.3 76 -10.6 12.8
18:35 1017 30.03 846 24.98 -6.9 19.7 75 -10.6 12.8
18:40 1017 30.03 846 24.98 -6.9 19.5 75 -10.7 12.7
18:45 1017 30.03 846 24.98 -7 19.4 74 -10.8 12.5
18:50 1017 30.03 846 24.98 -6.8 19.7 74 -10.7 12.7
18:55 1017 30.03 846 24.98 -6.8 19.7 75 -10.6 13
19:00 1017 30.03 846 24.98 -7 19.4 75 -10.7 12.8
19:05 1017 30.03 846 24.98 -6.9 19.6 74 -10.7 12.7
19:10 1017 30.03 846 24.98 -6.8 19.8 75 -10.6 13
19:15 1017 30.03 846 24.98 -7.1 19.3 77 -10.5 13.1
19:20 1017 30.03 846 24.98 -7.1 19.2 76 -10.7 12.7
19:25 1017 30.03 846 24.98 -7.1 19.2 76 -10.8 12.6
19:30 1017 30.03 846 24.98 -7.1 19.3 76 -10.6 12.9
19:35 1017 30.03 846 24.98 -6.9 19.6 76 -10.4 13.3
19:40 1017 30.03 846 24.98 -6.8 19.7 76 -10.4 13.3
19:45 1017 30.03 846 24.98 -6.9 19.6 75 -10.6 12.9
19:50 1017 30.03 846 24.98 -6.7 19.9 74 -10.6 12.9
19:55 1016 30 846 24.98 -6.7 20 75 -10.5 13.2
20:00 1016 30 846 24.98 -6.6 20.1 74 -10.5 13
20:05 1016 30 846 24.98 -6.5 20.3 73 -10.6 13
20:10 1016 30 846 24.98 -6.4 20.4 73 -10.5 13.1
20:15 1016 30 846 24.98 -6.4 20.5 71 -10.8 12.5
20:20 1016 30 846 24.98 -6.3 20.7 72 -10.5 13
20:25 1016 30 845 24.95 -6.4 20.5 75 -10.2 13.7
20:30 1016 30 845 24.95 -6.5 20.2 74 -10.5 13.1
20:35 1016 30 845 24.95 -6.6 20.2 74 -10.4 13.2
20:40 1016 30 845 24.95 -6.6 20.2 74 -10.4 13.3
20:45 1016 30 845 24.95 -6.5 20.3 72 -10.7 12.8
20:50 1016 30 845 24.95 -6.4 20.5 72 -10.7 12.8
20:55 1016 30 845 24.95 -6.3 20.7 70 -10.8 12.5
21:00 1016 30 845 24.95 -6.2 20.8 71 -10.6 12.8
21:05 1016 30 845 24.95 -6.3 20.7 71 -10.7 12.8
21:10 1016 30 845 24.95 -6.2 20.8 69 -11.1 12
21:15 1016 30 845 24.95 -6.1 21.1 70 -10.7 12.7
21:20 1016 30 846 24.98 -6 21.2 68 -10.9 12.4
21:25 1016 30 846 24.98 -5.9 21.3 70 -10.6 13
21:30 1016 30 845 24.95 -6.1 21 73 -10.2 13.6
21:35 1016 30 846 24.98 -6.3 20.7 73 -10.3 13.4
21:40 1016 30 846 24.98 -6.3 20.6 75 -10.1 13.8
21:45 1016 30 846 24.98 -6.3 20.6 72 -10.5 13
21:50 1016 30 846 24.98 -6.2 20.9 72 -10.5 13.1
21:55 1016 30 846 24.98 -6.1 20.9 72 -10.4 13.3
22:00 1016 30 845 24.95 -6.2 20.9 73 -10.3 13.5
22:05 1016 30 845 24.95 -6.3 20.7 76 -9.9 14.2
22:10 1016 30 845 24.95 -6.5 20.3 77 -9.8 14.3
22:15 1016 30 845 24.95 -6.8 19.8 79 -9.8 14.3
22:20 1016 30 845 24.95 -6.9 19.5 79 -10 14
22:25 1016 30 845 24.95 -7.1 19.2 79 -10.2 13.7
22:30 1016 30 845 24.95 -7.2 19.1 79 -10.2 13.7
22:35 1016 30 845 24.95 -7.3 18.9 79 -10.3 13.5
22:40 1016 30 845 24.95 -7.4 18.8 80 -10.2 13.6
22:45 1016 30 845 24.95 -7.3 18.8 80 -10.1 13.7
22:50 1016 30 845 24.95 -7.4 18.8 81 -10.1 13.7
22:55 1016 30 845 24.95 -7.3 18.8 81 -10.1 13.8
23:00 1016 30 845 24.95 -7.4 18.7 81 -10.2 13.7
23:05 1016 30 845 24.95 -7.4 18.7 81 -10.2 13.7
23:10 1016 30 845 24.95 -7.4 18.6 81 -10.2 13.7
23:15 1016 30 845 24.95 -7.5 18.5 82 -10.1 13.8
23:20 1016 30 845 24.95 -7.5 18.5 82 -10.1 13.7
23:25 1016 30 845 24.95 -7.5 18.6 81 -10.2 13.6
23:30 1016 30 845 24.95 -7.4 18.8 80 -10.3 13.5
23:35 1016 30 845 24.95 -7.3 18.9 80 -10.1 13.8
23:40 1016 30 845 24.95 -7.3 18.9 80 -10.2 13.6
23:45 1016 30 845 24.95 -7.3 18.9 81 -10.1 13.9
23:50 1016 30 845 24.95 -7.3 18.9 80 -10.1 13.8
23:55 1016 30 845 24.95 -7.3 18.8 80 -10.2 13.7
24:00 1016 30 845 24.95 -7.3 19 80 -10.2 13.7